createdAt,value
2019-02-05T00:01:46.253Z,1.70
2019-02-05T00:05:19.931Z,1.60
2019-02-05T00:07:06.667Z,1.60
2019-02-05T00:09:39.952Z,1.60
2019-02-05T00:15:09.324Z,1.40
2019-02-05T00:17:48.601Z,1.40
2019-02-05T00:23:32.008Z,1.50
2019-02-05T00:26:26.839Z,1.50
2019-02-05T00:29:00.896Z,1.50
2019-02-05T00:38:02.550Z,1.60
2019-02-05T00:41:05.123Z,1.60
2019-02-05T00:43:35.024Z,1.60
2019-02-05T00:46:11.023Z,1.70
2019-02-05T00:49:01.476Z,1.70
2019-02-05T00:51:31.773Z,1.70
2019-02-05T00:54:08.031Z,1.70
2019-02-05T00:56:56.039Z,1.80
2019-02-05T00:59:59.270Z,1.80
2019-02-05T01:02:29.626Z,1.80
2019-02-05T01:05:14.280Z,1.80
2019-02-05T01:11:07.026Z,1.80
2019-02-05T01:13:37.461Z,1.80
2019-02-05T01:16:22.732Z,1.80
2019-02-05T01:21:49.783Z,1.80
2019-02-05T01:24:24.426Z,1.90
2019-02-05T01:33:29.511Z,1.80
2019-02-05T01:36:02.433Z,1.80
2019-02-05T01:38:58.575Z,1.90
2019-02-05T01:41:24.915Z,1.90
2019-02-05T01:43:58.382Z,1.90
2019-02-05T01:46:36.897Z,1.90
2019-02-05T01:52:16.106Z,1.90
2019-02-05T01:54:47.711Z,1.90
2019-02-05T02:00:30.478Z,1.80
2019-02-05T02:03:33.619Z,1.80
2019-02-05T02:06:00.139Z,1.90
2019-02-05T02:08:30.266Z,1.90
2019-02-05T02:11:12.291Z,1.90
2019-02-05T02:15:27.507Z,1.90
2019-02-05T02:16:26.168Z,1.90
2019-02-05T02:21:50.675Z,1.90
2019-02-05T02:24:28.829Z,1.90
2019-02-05T02:29:53.214Z,2.00
2019-02-05T02:32:23.329Z,2.00
2019-02-05T02:35:08.001Z,2.00
2019-02-05T02:37:50.511Z,2.00
2019-02-05T02:40:12.964Z,2.00
2019-02-05T02:42:47.172Z,2.00
2019-02-05T02:45:18.124Z,2.00
2019-02-05T02:47:46.791Z,2.00
2019-02-05T02:50:33.603Z,2.00
2019-02-05T02:56:02.858Z,2.00
2019-02-05T02:58:31.806Z,2.10
2019-02-05T03:01:09.747Z,2.10
2019-02-05T03:03:45.853Z,2.10
2019-02-05T03:06:43.143Z,2.20
2019-02-05T03:09:19.480Z,2.20
2019-02-05T03:11:48.013Z,2.20
2019-02-05T03:14:22.762Z,2.20
2019-02-05T03:17:07.886Z,2.20
2019-02-05T03:19:45.159Z,2.30
2019-02-05T03:22:18.049Z,2.30
2019-02-05T03:24:53.393Z,2.30
2019-02-05T03:27:27.833Z,2.30
2019-02-05T03:30:02.391Z,2.30
2019-02-05T03:33:01.695Z,2.30
2019-02-05T03:35:24.532Z,2.30
2019-02-05T03:38:00.437Z,2.30
2019-02-05T03:40:42.058Z,2.40
2019-02-05T03:43:09.546Z,2.40
2019-02-05T03:45:41.181Z,2.40
2019-02-05T03:48:20.490Z,2.40
2019-02-05T03:50:53.326Z,2.40
2019-02-05T03:53:30.649Z,2.40
2019-02-05T03:56:15.338Z,2.40
2019-02-05T03:59:03.153Z,2.40
2019-02-05T04:01:52.187Z,2.40
2019-02-05T04:04:45.679Z,2.40
2019-02-05T04:07:58.422Z,2.40
2019-02-05T04:10:22.291Z,2.40
2019-02-05T04:13:28.662Z,2.40
2019-02-05T04:16:32.243Z,2.40
2019-02-05T04:19:21.616Z,2.40
2019-02-05T04:22:15.965Z,2.40
2019-02-05T04:24:47.657Z,2.40
2019-02-05T04:27:27.936Z,2.50
2019-02-05T04:29:59.545Z,2.50
2019-02-05T04:32:36.993Z,2.50
2019-02-05T04:35:27.788Z,2.50
2019-02-05T04:38:02.437Z,2.50
2019-02-05T04:40:45.499Z,2.50
2019-02-05T04:43:32.393Z,2.50
2019-02-05T04:46:06.706Z,2.50
2019-02-05T04:48:50.294Z,2.50
2019-02-05T04:51:24.345Z,2.50
2019-02-05T04:54:13.759Z,2.50
2019-02-05T04:57:06.243Z,2.50
2019-02-05T04:59:49.781Z,2.50
2019-02-05T05:02:30.227Z,2.50
2019-02-05T05:05:20.038Z,2.50
2019-02-05T05:07:55.079Z,2.50
2019-02-05T05:10:23.609Z,2.50
2019-02-05T05:12:52.178Z,2.60
2019-02-05T05:15:20.881Z,2.60
2019-02-05T05:17:49.403Z,2.60
2019-02-05T05:20:17.936Z,2.60
2019-02-05T05:22:46.940Z,2.60
2019-02-05T05:25:15.548Z,2.60
2019-02-05T05:27:44.246Z,2.70
2019-02-05T05:30:15.686Z,2.70
2019-02-05T05:32:44.344Z,2.70
2019-02-05T05:35:13.041Z,2.70
2019-02-05T05:37:41.561Z,2.70
2019-02-05T05:40:10.684Z,2.70
2019-02-05T05:42:39.224Z,2.70
2019-02-05T05:45:11.285Z,2.80
2019-02-05T05:47:39.990Z,2.80
2019-02-05T05:50:11.949Z,2.80
2019-02-05T05:52:40.481Z,2.80
2019-02-05T05:55:09.826Z,2.80
2019-02-05T05:57:38.409Z,2.80
2019-02-05T06:00:15.964Z,2.80
2019-02-05T06:02:44.489Z,2.80
2019-02-05T06:05:14.764Z,2.80
2019-02-05T06:07:43.349Z,2.80
2019-02-05T06:10:15.578Z,2.80
2019-02-05T06:12:44.441Z,2.90
2019-02-05T06:15:14.671Z,2.90
2019-02-05T06:17:43.260Z,2.90
2019-02-05T06:20:17.316Z,2.90
2019-02-05T06:22:46.289Z,2.90
2019-02-05T06:25:15.470Z,3.00
2019-02-05T06:27:44.068Z,3.00
2019-02-05T06:30:18.598Z,3.00
2019-02-05T06:32:47.187Z,3.00
2019-02-05T06:35:15.849Z,3.00
2019-02-05T06:37:44.512Z,3.00
2019-02-05T06:40:19.487Z,3.00
2019-02-05T06:42:48.078Z,3.10
2019-02-05T06:45:16.773Z,3.10
2019-02-05T06:47:45.379Z,3.10
2019-02-05T06:50:15.012Z,3.10
2019-02-05T06:52:43.622Z,3.10
2019-02-05T06:55:14.298Z,3.10
2019-02-05T06:57:42.977Z,3.20
2019-02-05T07:00:30.860Z,3.20
2019-02-05T07:02:59.510Z,3.20
2019-02-05T07:05:28.043Z,3.20
2019-02-05T07:07:57.023Z,3.20
2019-02-05T07:10:26.681Z,3.20
2019-02-05T07:12:55.339Z,3.30
2019-02-05T07:15:24.237Z,3.30
2019-02-05T07:17:53.039Z,3.30
2019-02-05T07:20:21.568Z,3.30
2019-02-05T07:22:50.104Z,3.30
2019-02-05T07:25:23.389Z,3.30
2019-02-05T07:27:51.905Z,3.30
2019-02-05T07:30:28.477Z,3.40
2019-02-05T07:32:57.263Z,3.40
2019-02-05T07:35:27.083Z,3.40
2019-02-05T07:37:55.933Z,3.40
2019-02-05T07:40:24.845Z,3.40
2019-02-05T07:42:53.381Z,3.50
2019-02-05T07:45:25.792Z,3.50
2019-02-05T07:47:54.457Z,3.50
2019-02-05T07:50:27.786Z,3.50
2019-02-05T07:52:56.459Z,3.50
2019-02-05T07:55:25.518Z,3.50
2019-02-05T07:57:54.206Z,3.50
2019-02-05T08:00:25.153Z,3.50
2019-02-05T08:02:53.772Z,3.50
2019-02-05T08:05:28.185Z,3.50
2019-02-05T08:07:57.083Z,3.50
2019-02-05T08:10:25.948Z,3.50
2019-02-05T08:12:54.740Z,3.50
2019-02-05T08:15:28.414Z,3.50
2019-02-05T08:17:57.000Z,3.50
2019-02-05T08:20:25.957Z,3.50
2019-02-05T08:22:54.721Z,3.50
2019-02-05T08:25:23.903Z,3.50
2019-02-05T08:27:53.044Z,3.50
2019-02-05T08:30:30.694Z,3.60
2019-02-05T08:32:59.626Z,3.60
2019-02-05T08:35:28.612Z,3.60
2019-02-05T08:37:57.144Z,3.60
2019-02-05T08:40:25.799Z,3.60
2019-02-05T08:42:55.888Z,3.60
2019-02-05T08:45:30.852Z,3.60
2019-02-05T08:47:59.385Z,3.70
2019-02-05T08:50:29.439Z,3.60
2019-02-05T08:52:58.148Z,3.70
2019-02-05T08:55:26.943Z,3.70
2019-02-05T08:58:14.815Z,3.70
2019-02-05T09:00:43.884Z,3.70
2019-02-05T09:03:12.855Z,3.70
2019-02-05T09:05:41.931Z,3.80
2019-02-05T09:08:10.740Z,3.80
2019-02-05T09:10:41.616Z,3.80
2019-02-05T09:13:10.497Z,3.90
2019-02-05T09:15:39.124Z,3.90
2019-02-05T09:18:08.189Z,3.90
2019-02-05T09:20:36.841Z,3.90
2019-02-05T09:23:06.211Z,3.90
2019-02-05T09:25:34.976Z,3.90
2019-02-05T09:28:03.748Z,3.90
2019-02-05T09:30:36.536Z,3.90
2019-02-05T09:33:08.196Z,3.90
2019-02-05T09:35:36.870Z,3.90
2019-02-05T09:38:05.831Z,3.90
2019-02-05T09:40:34.554Z,3.90
2019-02-05T09:43:03.155Z,4.00
2019-02-05T09:45:32.427Z,4.10
2019-02-05T09:48:02.021Z,4.10
2019-02-05T09:50:36.768Z,4.10
2019-02-05T09:53:01.083Z,4.20
2019-02-05T09:55:29.998Z,4.20
2019-02-05T09:57:58.664Z,4.20
2019-02-05T10:00:38.876Z,4.20
2019-02-05T10:03:08.020Z,4.30
2019-02-05T10:05:37.414Z,4.30
2019-02-05T10:08:06.391Z,4.40
2019-02-05T10:10:35.060Z,4.40
2019-02-05T10:13:04.427Z,4.30
2019-02-05T10:15:35.776Z,4.30
2019-02-05T10:18:05.917Z,4.30
2019-02-05T10:20:34.585Z,4.30
2019-02-05T10:23:04.352Z,4.30
2019-02-05T10:25:33.399Z,4.20
2019-02-05T10:28:02.147Z,4.30
2019-02-05T10:30:36.425Z,4.20
2019-02-05T10:33:06.382Z,4.20
2019-02-05T10:35:36.780Z,4.20
2019-02-05T10:38:06.031Z,4.20
2019-02-05T10:40:34.868Z,4.20
2019-02-05T10:43:03.822Z,4.10
2019-02-05T10:45:32.735Z,4.10
2019-02-05T10:48:01.719Z,4.10
2019-02-05T10:50:30.630Z,4.10
2019-02-05T10:52:59.234Z,4.10
2019-02-05T10:55:27.904Z,4.10
2019-02-05T10:57:56.868Z,4.20
2019-02-05T11:00:30.702Z,4.20
2019-02-05T11:03:13.588Z,4.20
2019-02-05T11:05:42.268Z,4.20
2019-02-05T11:08:11.030Z,4.20
2019-02-05T11:10:39.885Z,4.20
2019-02-05T11:13:08.970Z,4.20
2019-02-05T11:15:37.767Z,4.20
2019-02-05T11:18:08.887Z,4.20
2019-02-05T11:20:37.560Z,4.20
2019-02-05T11:23:06.744Z,4.20
2019-02-05T11:25:35.726Z,4.20
2019-02-05T11:28:04.532Z,4.20
2019-02-05T11:30:38.873Z,4.20
2019-02-05T11:33:07.718Z,4.20
2019-02-05T11:35:36.391Z,4.20
2019-02-05T11:38:05.855Z,4.20
2019-02-05T11:40:36.769Z,4.20
2019-02-05T11:43:05.595Z,4.30
2019-02-05T11:45:35.735Z,4.30
2019-02-05T11:48:07.437Z,4.30
2019-02-05T11:50:36.563Z,4.30
2019-02-05T11:53:05.400Z,4.40
2019-02-05T11:55:34.866Z,4.40
2019-02-05T11:58:03.745Z,4.50
2019-02-05T12:00:40.287Z,4.60
2019-02-05T12:03:10.139Z,4.70
2019-02-05T12:05:39.203Z,4.80
2019-02-05T12:08:08.169Z,4.80
2019-02-05T12:10:56.299Z,4.90
2019-02-05T12:13:24.963Z,4.90
2019-02-05T12:15:53.709Z,5.00
2019-02-05T12:18:22.989Z,5.00
2019-02-05T12:20:51.640Z,5.00
2019-02-05T12:23:20.717Z,5.00
2019-02-05T12:25:49.477Z,5.00
2019-02-05T12:28:18.214Z,5.00
2019-02-05T12:30:47.361Z,5.10
2019-02-05T12:33:15.984Z,5.10
2019-02-05T12:35:45.056Z,5.10
2019-02-05T12:38:14.072Z,5.10
2019-02-05T12:40:42.763Z,5.20
2019-02-05T12:43:11.439Z,5.20
2019-02-05T12:45:40.100Z,5.20
2019-02-05T12:48:09.078Z,5.20
2019-02-05T12:50:39.747Z,5.20
2019-02-05T12:53:08.580Z,5.20
2019-02-05T12:55:37.424Z,5.20
2019-02-05T12:58:06.681Z,5.20
2019-02-05T13:00:40.456Z,5.20
2019-02-05T13:03:10.215Z,5.20
2019-02-05T13:05:39.542Z,5.30
2019-02-05T13:08:08.483Z,5.30
2019-02-05T13:10:42.500Z,5.30
2019-02-05T13:13:11.464Z,5.30
2019-02-05T13:15:40.201Z,5.30
2019-02-05T13:18:08.945Z,5.30
2019-02-05T13:20:38.111Z,5.30
2019-02-05T13:23:07.603Z,5.40
2019-02-05T13:25:36.366Z,5.40
2019-02-05T13:28:07.523Z,5.40
2019-02-05T13:30:37.480Z,5.40
2019-02-05T13:33:07.978Z,5.40
2019-02-05T13:35:37.042Z,5.40
2019-02-05T13:38:06.203Z,5.40
2019-02-05T13:40:34.972Z,5.50
2019-02-05T13:43:03.659Z,5.50
2019-02-05T13:45:35.139Z,5.50
2019-02-05T13:48:05.527Z,5.50
2019-02-05T13:50:34.315Z,5.50
2019-02-05T13:53:02.960Z,5.50
2019-02-05T13:55:34.190Z,5.50
2019-02-05T13:58:02.857Z,5.50
2019-02-05T14:00:33.835Z,5.50
2019-02-05T14:03:02.421Z,5.50
2019-02-05T14:05:31.085Z,5.50
2019-02-05T14:07:59.957Z,5.50
2019-02-05T14:10:37.346Z,5.50
2019-02-05T14:13:06.913Z,5.50
2019-02-05T14:15:40.733Z,5.50
2019-02-05T14:18:09.899Z,5.50
2019-02-05T14:20:38.819Z,5.40
2019-02-05T14:23:07.492Z,5.40
2019-02-05T14:25:36.427Z,5.40
2019-02-05T14:28:05.380Z,5.40
2019-02-05T14:30:39.763Z,5.50
2019-02-05T14:33:08.798Z,5.50
2019-02-05T14:35:37.478Z,5.50
2019-02-05T14:38:06.853Z,5.50
2019-02-05T14:40:35.783Z,5.50
2019-02-05T14:43:05.243Z,5.40
2019-02-05T14:45:33.837Z,5.40
2019-02-05T14:48:02.906Z,5.40
2019-02-05T14:50:36.146Z,5.40
2019-02-05T14:53:06.111Z,5.40
2019-02-05T14:55:34.839Z,5.40
2019-02-05T14:58:04.099Z,5.40
2019-02-05T15:00:34.331Z,5.40
2019-02-05T15:03:05.348Z,5.40
2019-02-05T15:05:34.319Z,5.30
2019-02-05T15:08:05.836Z,5.30
2019-02-05T15:10:35.027Z,5.30
2019-02-05T15:13:05.214Z,5.30
2019-02-05T15:15:34.272Z,5.30
2019-02-05T15:18:03.198Z,5.30
2019-02-05T15:20:34.881Z,5.30
2019-02-05T15:23:04.055Z,5.30
2019-02-05T15:25:35.584Z,5.20
2019-02-05T15:28:04.684Z,5.20
2019-02-05T15:30:41.096Z,5.10
2019-02-05T15:33:30.195Z,5.10
2019-02-05T15:36:00.521Z,5.10
2019-02-05T15:38:29.628Z,5.10
2019-02-05T15:40:58.776Z,5.00
2019-02-05T15:43:29.474Z,5.00
2019-02-05T15:45:57.973Z,5.00
2019-02-05T15:48:26.645Z,5.00
2019-02-05T15:50:55.439Z,5.00
2019-02-05T15:53:24.503Z,5.00
2019-02-05T15:55:53.279Z,4.90
2019-02-05T15:58:22.131Z,4.90
2019-02-05T16:00:50.809Z,4.90
2019-02-05T16:03:19.483Z,4.90
2019-02-05T16:05:48.250Z,4.90
2019-02-05T16:08:16.828Z,4.90
2019-02-05T16:10:45.509Z,4.90
2019-02-05T16:13:14.345Z,4.90
2019-02-05T16:15:43.079Z,4.90
2019-02-05T16:18:11.699Z,4.80
2019-02-05T16:20:40.612Z,4.80
2019-02-05T16:23:09.298Z,4.80
2019-02-05T16:25:38.455Z,4.80
2019-02-05T16:28:07.385Z,4.70
2019-02-05T16:30:36.131Z,4.70
2019-02-05T16:33:05.058Z,4.70
2019-02-05T16:35:33.862Z,4.70
2019-02-05T16:38:02.520Z,4.60
2019-02-05T16:40:33.501Z,4.60
2019-02-05T16:43:02.381Z,4.60
2019-02-05T16:45:32.410Z,4.60
2019-02-05T16:48:01.198Z,4.60
2019-02-05T16:50:41.966Z,4.60
2019-02-05T16:53:11.358Z,4.50
2019-02-05T16:55:40.035Z,4.50
2019-02-05T16:58:09.041Z,4.50
2019-02-05T17:00:38.883Z,4.50
2019-02-05T17:03:07.683Z,4.50
2019-02-05T17:05:38.781Z,4.50
2019-02-05T17:08:07.837Z,4.50
2019-02-05T17:10:36.502Z,4.40
2019-02-05T17:13:05.914Z,4.40
2019-02-05T17:15:34.721Z,4.40
2019-02-05T17:18:03.495Z,4.40
2019-02-05T17:20:33.480Z,4.40
2019-02-05T17:23:02.247Z,4.40
2019-02-05T17:25:31.317Z,4.40
2019-02-05T17:28:02.591Z,4.40
2019-02-05T17:30:33.836Z,4.40
2019-02-05T17:33:02.574Z,4.50
2019-02-05T17:35:31.475Z,4.50
2019-02-05T17:38:00.606Z,4.50
2019-02-05T17:40:29.615Z,4.50
2019-02-05T17:42:58.280Z,4.50
2019-02-05T17:45:30.090Z,4.40
2019-02-05T17:48:00.269Z,4.40
2019-02-05T17:50:28.949Z,4.40
2019-02-05T17:52:58.097Z,4.40
2019-02-05T17:55:46.110Z,4.40
2019-02-05T17:58:14.933Z,4.40
2019-02-05T18:00:54.569Z,4.40
2019-02-05T18:03:23.530Z,4.40
2019-02-05T18:06:11.659Z,4.40
2019-02-05T18:08:40.617Z,4.40
2019-02-05T18:11:09.302Z,4.40
2019-02-05T18:13:38.293Z,4.40
2019-02-05T18:16:08.978Z,4.40
2019-02-05T18:18:37.656Z,4.40
2019-02-05T18:21:06.357Z,4.40
2019-02-05T18:23:34.954Z,4.40
2019-02-05T18:26:03.732Z,4.40
2019-02-05T18:28:32.725Z,4.40
2019-02-05T18:31:01.461Z,4.40
2019-02-05T18:33:32.749Z,4.30
2019-02-05T18:36:01.592Z,4.30
2019-02-05T18:38:30.254Z,4.30
2019-02-05T18:40:58.848Z,4.30
2019-02-05T18:43:27.726Z,4.30
2019-02-05T18:45:56.253Z,4.30
2019-02-05T18:48:26.889Z,4.30
2019-02-05T18:50:55.329Z,4.30
2019-02-05T18:53:23.926Z,4.30
2019-02-05T18:55:52.524Z,4.30
2019-02-05T18:58:21.078Z,4.40
2019-02-05T19:00:49.714Z,4.30
2019-02-05T19:03:18.316Z,4.30
2019-02-05T19:05:46.997Z,4.30
2019-02-05T19:08:16.537Z,4.20
2019-02-05T19:10:45.793Z,4.20
2019-02-05T19:13:14.556Z,4.20
2019-02-05T19:15:43.531Z,4.10
2019-02-05T19:18:12.430Z,4.10
2019-02-05T19:20:40.952Z,4.10
2019-02-05T19:23:10.363Z,4.10
2019-02-05T19:25:40.753Z,4.10
2019-02-05T19:28:33.072Z,4.10
2019-02-05T19:31:03.385Z,4.10
2019-02-05T19:33:32.300Z,4.00
2019-02-05T19:36:01.083Z,4.00
2019-02-05T19:38:29.710Z,4.00
2019-02-05T19:40:58.283Z,4.00
2019-02-05T19:43:26.834Z,4.00
2019-02-05T19:45:56.929Z,4.00
2019-02-05T19:48:33.136Z,4.00
2019-02-05T19:51:02.200Z,3.90
2019-02-05T19:53:30.787Z,3.90
2019-02-05T19:55:59.696Z,3.90
2019-02-05T19:58:28.210Z,3.90
2019-02-05T20:00:57.012Z,3.80
2019-02-05T20:03:25.653Z,3.90
2019-02-05T20:05:54.190Z,3.80
2019-02-05T20:08:22.780Z,3.80
2019-02-05T20:10:51.316Z,3.80
2019-02-05T20:13:20.075Z,3.80
2019-02-05T20:15:51.187Z,3.80
2019-02-05T20:18:18.969Z,3.80
2019-02-05T20:20:47.558Z,3.80
2019-02-05T20:23:16.014Z,3.80
2019-02-05T20:25:44.571Z,3.80
2019-02-05T20:28:13.181Z,3.80
2019-02-05T20:30:41.729Z,3.90
2019-02-05T20:33:10.253Z,3.90
2019-02-05T20:35:38.881Z,3.90
2019-02-05T20:38:07.491Z,3.90
2019-02-05T20:40:36.112Z,3.90
2019-02-05T20:43:04.978Z,3.90
2019-02-05T20:45:33.495Z,3.80
2019-02-05T20:48:02.056Z,3.80
2019-02-05T20:50:30.659Z,3.80
2019-02-05T20:52:59.483Z,3.80
2019-02-05T20:55:28.115Z,3.80
2019-02-05T20:57:56.720Z,3.80
2019-02-05T21:00:27.095Z,3.80
2019-02-05T21:02:55.773Z,3.90
2019-02-05T21:05:24.309Z,3.80
2019-02-05T21:07:52.908Z,3.80
2019-02-05T21:10:32.959Z,3.80
2019-02-05T21:13:01.617Z,3.90
2019-02-05T21:15:31.801Z,3.90
2019-02-05T21:18:00.380Z,3.90
2019-02-05T21:20:33.910Z,3.90
2019-02-05T21:23:04.404Z,3.90
2019-02-05T21:25:33.124Z,3.90
2019-02-05T21:28:01.653Z,3.90
2019-02-05T21:30:30.277Z,3.80
2019-02-05T21:32:58.968Z,3.80
2019-02-05T21:35:27.486Z,3.80
2019-02-05T21:37:56.432Z,3.80
2019-02-05T21:40:26.071Z,3.80
2019-02-05T21:42:54.596Z,3.80
2019-02-05T21:45:31.853Z,3.80
2019-02-05T21:48:00.459Z,3.80
2019-02-05T21:50:29.056Z,3.80
2019-02-05T21:52:58.183Z,3.80
2019-02-05T21:55:27.641Z,3.80
2019-02-05T21:57:56.705Z,3.80
2019-02-05T22:00:33.100Z,3.80
2019-02-05T22:03:01.662Z,3.80
2019-02-05T22:05:33.445Z,3.80
2019-02-05T22:08:02.509Z,3.80
2019-02-05T22:10:31.040Z,3.80
2019-02-05T22:12:59.819Z,3.80
2019-02-05T22:15:28.808Z,3.80
2019-02-05T22:17:57.417Z,3.70
2019-02-05T22:20:29.592Z,3.80
2019-02-05T22:22:58.189Z,3.80
2019-02-05T22:25:29.942Z,3.70
2019-02-05T22:27:58.853Z,3.70
2019-02-05T22:30:35.176Z,3.70
2019-02-05T22:33:05.839Z,3.70
2019-02-05T22:35:34.483Z,3.70
2019-02-05T22:38:03.228Z,3.70
2019-02-05T22:40:31.831Z,3.70
2019-02-05T22:43:00.364Z,3.70
2019-02-05T22:45:33.035Z,3.70
2019-02-05T22:48:01.789Z,3.70
2019-02-05T22:50:35.055Z,3.70
2019-02-05T22:53:08.938Z,3.70
2019-02-05T22:55:37.712Z,3.70
2019-02-05T22:58:06.959Z,3.70
2019-02-05T23:00:57.960Z,3.70
2019-02-05T23:03:32.212Z,3.60
2019-02-05T23:06:29.664Z,3.70
2019-02-05T23:09:01.679Z,3.70
2019-02-05T23:11:57.120Z,3.60
2019-02-05T23:14:25.907Z,3.60
2019-02-05T23:16:54.481Z,3.60
2019-02-05T23:19:23.690Z,3.60
2019-02-05T23:21:52.560Z,3.60
2019-02-05T23:24:21.146Z,3.60
2019-02-05T23:26:49.847Z,3.60
2019-02-05T23:29:18.455Z,3.50
2019-02-05T23:31:47.070Z,3.50
2019-02-05T23:34:15.569Z,3.50
2019-02-05T23:36:44.087Z,3.50
2019-02-05T23:39:12.567Z,3.50
2019-02-05T23:41:41.175Z,3.40
2019-02-05T23:44:09.832Z,3.40
2019-02-05T23:46:38.276Z,3.40
2019-02-05T23:49:06.975Z,3.40
2019-02-05T23:51:35.867Z,3.40
2019-02-05T23:54:05.220Z,3.40
2019-02-05T23:56:33.814Z,3.30
2019-02-05T23:59:02.339Z,3.40
